Terminal Aerodrome Forecast
Issued by NWS Binghamton, NY

Home | Current Version | Previous Version | Text Only | Print | Product List | Glossary On
Versions: 1 2 3 4 5 6 7 8 9 10 11 12 13 14 15 16 17 18
000
FTUS41 KBGM 260537
TAFBGM
TAF
KBGM 260537Z 2606/2706 28011KT P6SM FEW008 OVC012
      TEMPO 2606/2609 OVC008
     FM261600 29013G20KT P6SM BKN025
     FM262000 30012G18KT P6SM SCT040
     FM262300 32007KT P6SM FEW040
     FM270300 VRB03KT P6SM FEW040=

USA.gov is the U.S. government's official web portal to all federal, state and local government web resources and services.